sensor_id;sensor_type;location;lat;lon;timestamp;temperature;humidity
10802;DHT22;5453;50.852;7.102;2023-01-20T00:02:08;3.70;99.90
10802;DHT22;5453;50.852;7.102;2023-01-20T00:04:40;3.70;99.90
10802;DHT22;5453;50.852;7.102;2023-01-20T00:07:13;3.70;99.90
10802;DHT22;5453;50.852;7.102;2023-01-20T00:09:46;3.60;99.90
10802;DHT22;5453;50.852;7.102;2023-01-20T00:12:18;3.60;99.90
10802;DHT22;5453;50.852;7.102;2023-01-20T00:14:50;3.60;99.90
10802;DHT22;5453;50.852;7.102;2023-01-20T00:17:23;3.50;99.90
10802;DHT22;5453;50.852;7.102;2023-01-20T00:19:55;3.50;99.90
10802;DHT22;5453;50.852;7.102;2023-01-20T00:22:29;3.50;99.90
10802;DHT22;5453;50.852;7.102;2023-01-20T00:25:01;3.40;99.90
10802;DHT22;5453;50.852;7.102;2023-01-20T00:27:34;3.40;99.90
10802;DHT22;5453;50.852;7.102;2023-01-20T00:30:07;3.30;99.90
10802;DHT22;5453;50.852;7.102;2023-01-20T00:32:40;3.30;99.90
10802;DHT22;5453;50.852;7.102;2023-01-20T00:35:15;3.30;99.90
10802;DHT22;5453;50.852;7.102;2023-01-20T00:37:48;3.30;99.90
10802;DHT22;5453;50.852;7.102;2023-01-20T00:40:21;3.30;99.90
10802;DHT22;5453;50.852;7.102;2023-01-20T00:42:53;3.20;99.90
10802;DHT22;5453;50.852;7.102;2023-01-20T00:45:25;3.20;99.90
10802;DHT22;5453;50.852;7.102;2023-01-20T00:47:57;3.20;99.90
10802;DHT22;5453;50.852;7.102;2023-01-20T00:50:29;3.20;99.90
10802;DHT22;5453;50.852;7.102;2023-01-20T00:53:04;3.20;99.90
10802;DHT22;5453;50.852;7.102;2023-01-20T00:55:37;3.20;99.90
10802;DHT22;5453;50.852;7.102;2023-01-20T00:58:09;3.20;99.90
10802;DHT22;5453;50.852;7.102;2023-01-20T01:00:42;3.20;99.90
10802;DHT22;5453;50.852;7.102;2023-01-20T01:03:15;3.20;99.90
10802;DHT22;5453;50.852;7.102;2023-01-20T01:05:48;3.20;99.90
10802;DHT22;5453;50.852;7.102;2023-01-20T01:08:24;3.20;99.90
10802;DHT22;5453;50.852;7.102;2023-01-20T01:10:57;3.20;99.90
10802;DHT22;5453;50.852;7.102;2023-01-20T01:13:29;3.30;99.90
10802;DHT22;5453;50.852;7.102;2023-01-20T01:16:01;3.30;99.90
10802;DHT22;5453;50.852;7.102;2023-01-20T01:18:33;3.30;99.90
10802;DHT22;5453;50.852;7.102;2023-01-20T01:21:07;3.30;99.90
10802;DHT22;5453;50.852;7.102;2023-01-20T01:23:41;3.30;99.90
10802;DHT22;5453;50.852;7.102;2023-01-20T01:26:14;3.30;99.90
10802;DHT22;5453;50.852;7.102;2023-01-20T01:28:47;3.40;99.90
10802;DHT22;5453;50.852;7.102;2023-01-20T01:31:20;3.40;99.90
10802;DHT22;5453;50.852;7.102;2023-01-20T01:33:53;3.40;99.90
10802;DHT22;5453;50.852;7.102;2023-01-20T01:36:25;3.40;99.90
10802;DHT22;5453;50.852;7.102;2023-01-20T01:38:58;3.40;99.90
10802;DHT22;5453;50.852;7.102;2023-01-20T01:41:30;3.40;99.90
10802;DHT22;5453;50.852;7.102;2023-01-20T01:44:06;3.40;99.90
10802;DHT22;5453;50.852;7.102;2023-01-20T01:46:39;3.40;99.90
10802;DHT22;5453;50.852;7.102;2023-01-20T01:49:16;3.40;99.90
10802;DHT22;5453;50.852;7.102;2023-01-20T01:51:56;3.30;99.90
10802;DHT22;5453;50.852;7.102;2023-01-20T01:54:34;3.40;99.90
10802;DHT22;5453;50.852;7.102;2023-01-20T01:57:10;3.30;99.90
10802;DHT22;5453;50.852;7.102;2023-01-20T01:59:43;3.40;99.90
10802;DHT22;5453;50.852;7.102;2023-01-20T02:02:15;3.40;99.90
10802;DHT22;5453;50.852;7.102;2023-01-20T02:04:48;3.40;99.90
10802;DHT22;5453;50.852;7.102;2023-01-20T02:07:21;3.40;99.90
10802;DHT22;5453;50.852;7.102;2023-01-20T02:09:55;3.40;99.90
10802;DHT22;5453;50.852;7.102;2023-01-20T02:12:28;3.40;99.90
10802;DHT22;5453;50.852;7.102;2023-01-20T02:15:01;3.30;99.90
10802;DHT22;5453;50.852;7.102;2023-01-20T02:17:42;3.30;99.90
10802;DHT22;5453;50.852;7.102;2023-01-20T02:20:42;3.20;99.90
10802;DHT22;5453;50.852;7.102;2023-01-20T02:23:40;3.20;99.90
10802;DHT22;5453;50.852;7.102;2023-01-20T02:26:46;3.20;99.90
10802;DHT22;5453;50.852;7.102;2023-01-20T02:29:56;3.20;99.90
10802;DHT22;5453;50.852;7.102;2023-01-20T02:32:47;3.20;99.90
10802;DHT22;5453;50.852;7.102;2023-01-20T02:35:24;3.20;99.90
10802;DHT22;5453;50.852;7.102;2023-01-20T02:38:09;3.20;99.90
10802;DHT22;5453;50.852;7.102;2023-01-20T02:40:51;3.30;99.90
10802;DHT22;5453;50.852;7.102;2023-01-20T02:43:33;3.30;99.90
10802;DHT22;5453;50.852;7.102;2023-01-20T02:46:13;3.30;99.90
10802;DHT22;5453;50.852;7.102;2023-01-20T02:48:50;3.30;99.90
10802;DHT22;5453;50.852;7.102;2023-01-20T02:51:26;3.30;99.90
10802;DHT22;5453;50.852;7.102;2023-01-20T02:54:03;3.40;99.90
10802;DHT22;5453;50.852;7.102;2023-01-20T02:56:38;3.40;99.90
10802;DHT22;5453;50.852;7.102;2023-01-20T02:59:12;3.40;99.90
10802;DHT22;5453;50.852;7.102;2023-01-20T03:01:49;3.40;99.90
10802;DHT22;5453;50.852;7.102;2023-01-20T03:04:29;3.40;99.90
10802;DHT22;5453;50.852;7.102;2023-01-20T03:07:06;3.50;99.90
10802;DHT22;5453;50.852;7.102;2023-01-20T03:09:43;3.50;99.90
10802;DHT22;5453;50.852;7.102;2023-01-20T03:12:21;3.50;99.90
10802;DHT22;5453;50.852;7.102;2023-01-20T03:14:56;3.50;99.90
10802;DHT22;5453;50.852;7.102;2023-01-20T03:17:28;3.50;99.90
10802;DHT22;5453;50.852;7.102;2023-01-20T03:20:03;3.50;99.90
10802;DHT22;5453;50.852;7.102;2023-01-20T03:22:36;3.50;99.90
10802;DHT22;5453;50.852;7.102;2023-01-20T03:25:10;3.50;99.90
10802;DHT22;5453;50.852;7.102;2023-01-20T03:27:44;3.50;99.90
10802;DHT22;5453;50.852;7.102;2023-01-20T03:30:17;3.50;99.90
10802;DHT22;5453;50.852;7.102;2023-01-20T03:32:51;3.50;99.90
10802;DHT22;5453;50.852;7.102;2023-01-20T03:35:27;3.50;99.90
10802;DHT22;5453;50.852;7.102;2023-01-20T03:37:59;3.50;99.90
10802;DHT22;5453;50.852;7.102;2023-01-20T03:40:38;3.50;99.90
10802;DHT22;5453;50.852;7.102;2023-01-20T03:43:18;3.50;99.90
10802;DHT22;5453;50.852;7.102;2023-01-20T03:45:58;3.50;99.90
10802;DHT22;5453;50.852;7.102;2023-01-20T03:48:38;3.50;99.90
10802;DHT22;5453;50.852;7.102;2023-01-20T03:51:19;3.50;99.90
10802;DHT22;5453;50.852;7.102;2023-01-20T03:54:00;3.50;99.90
10802;DHT22;5453;50.852;7.102;2023-01-20T03:56:38;3.50;99.90
10802;DHT22;5453;50.852;7.102;2023-01-20T03:59:13;3.50;99.90
10802;DHT22;5453;50.852;7.102;2023-01-20T04:01:46;3.50;99.90
10802;DHT22;5453;50.852;7.102;2023-01-20T04:04:20;3.50;99.90
10802;DHT22;5453;50.852;7.102;2023-01-20T04:06:55;3.50;99.90
10802;DHT22;5453;50.852;7.102;2023-01-20T04:09:30;3.40;99.90
10802;DHT22;5453;50.852;7.102;2023-01-20T04:12:05;3.40;99.90
10802;DHT22;5453;50.852;7.102;2023-01-20T04:14:37;3.40;99.90
10802;DHT22;5453;50.852;7.102;2023-01-20T04:17:10;3.40;99.90
10802;DHT22;5453;50.852;7.102;2023-01-20T04:19:43;3.40;99.90
10802;DHT22;5453;50.852;7.102;2023-01-20T04:22:21;3.30;99.90
10802;DHT22;5453;50.852;7.102;2023-01-20T04:24:58;3.40;99.90
10802;DHT22;5453;50.852;7.102;2023-01-20T04:27:32;3.30;99.90
10802;DHT22;5453;50.852;7.102;2023-01-20T04:30:07;3.30;99.90
10802;DHT22;5453;50.852;7.102;2023-01-20T04:32:41;3.30;99.90
10802;DHT22;5453;50.852;7.102;2023-01-20T04:35:15;3.30;99.90
10802;DHT22;5453;50.852;7.102;2023-01-20T04:37:50;3.30;99.90
10802;DHT22;5453;50.852;7.102;2023-01-20T04:40:22;3.30;99.90
10802;DHT22;5453;50.852;7.102;2023-01-20T04:42:54;3.30;99.90
10802;DHT22;5453;50.852;7.102;2023-01-20T04:45:26;3.30;99.90
10802;DHT22;5453;50.852;7.102;2023-01-20T04:47:59;3.30;99.90
10802;DHT22;5453;50.852;7.102;2023-01-20T04:50:31;3.30;99.90
10802;DHT22;5453;50.852;7.102;2023-01-20T04:53:05;3.30;99.90
10802;DHT22;5453;50.852;7.102;2023-01-20T04:55:37;3.20;99.90
10802;DHT22;5453;50.852;7.102;2023-01-20T04:58:09;3.20;99.90
10802;DHT22;5453;50.852;7.102;2023-01-20T05:00:42;3.20;99.90
10802;DHT22;5453;50.852;7.102;2023-01-20T05:03:14;3.20;99.90
10802;DHT22;5453;50.852;7.102;2023-01-20T05:05:51;3.20;99.90
10802;DHT22;5453;50.852;7.102;2023-01-20T05:08:25;3.20;99.90
10802;DHT22;5453;50.852;7.102;2023-01-20T05:10:57;3.20;99.90
10802;DHT22;5453;50.852;7.102;2023-01-20T05:13:30;3.10;99.90
10802;DHT22;5453;50.852;7.102;2023-01-20T05:16:04;3.10;99.90
10802;DHT22;5453;50.852;7.102;2023-01-20T05:18:36;3.10;99.90
10802;DHT22;5453;50.852;7.102;2023-01-20T05:21:09;3.10;99.90
10802;DHT22;5453;50.852;7.102;2023-01-20T05:23:42;3.10;99.90
10802;DHT22;5453;50.852;7.102;2023-01-20T05:26:14;3.00;99.90
10802;DHT22;5453;50.852;7.102;2023-01-20T05:28:47;3.00;99.90
10802;DHT22;5453;50.852;7.102;2023-01-20T05:31:19;3.00;99.90
10802;DHT22;5453;50.852;7.102;2023-01-20T05:33:51;3.00;99.90
10802;DHT22;5453;50.852;7.102;2023-01-20T05:36:24;3.00;99.90
10802;DHT22;5453;50.852;7.102;2023-01-20T05:38:59;3.00;99.90
10802;DHT22;5453;50.852;7.102;2023-01-20T05:41:31;3.00;99.90
10802;DHT22;5453;50.852;7.102;2023-01-20T05:44:04;3.00;99.90
10802;DHT22;5453;50.852;7.102;2023-01-20T05:46:36;2.90;99.90
10802;DHT22;5453;50.852;7.102;2023-01-20T05:49:09;2.90;99.90
10802;DHT22;5453;50.852;7.102;2023-01-20T05:51:42;2.90;99.90
10802;DHT22;5453;50.852;7.102;2023-01-20T05:54:15;2.90;99.90
10802;DHT22;5453;50.852;7.102;2023-01-20T05:56:49;2.90;99.90
10802;DHT22;5453;50.852;7.102;2023-01-20T05:59:22;2.90;99.90
10802;DHT22;5453;50.852;7.102;2023-01-20T06:01:54;3.00;99.90
10802;DHT22;5453;50.852;7.102;2023-01-20T06:04:27;3.00;99.90
10802;DHT22;5453;50.852;7.102;2023-01-20T06:07:00;3.00;99.90
10802;DHT22;5453;50.852;7.102;2023-01-20T06:09:34;3.00;99.90
10802;DHT22;5453;50.852;7.102;2023-01-20T06:12:07;3.00;99.90
10802;DHT22;5453;50.852;7.102;2023-01-20T06:14:39;3.00;99.90
10802;DHT22;5453;50.852;7.102;2023-01-20T06:17:11;3.00;99.90
10802;DHT22;5453;50.852;7.102;2023-01-20T06:19:43;3.00;99.90
10802;DHT22;5453;50.852;7.102;2023-01-20T06:22:16;3.00;99.90
10802;DHT22;5453;50.852;7.102;2023-01-20T06:24:50;3.00;99.90
10802;DHT22;5453;50.852;7.102;2023-01-20T06:27:23;3.00;99.90
10802;DHT22;5453;50.852;7.102;2023-01-20T06:29:55;3.00;99.90
10802;DHT22;5453;50.852;7.102;2023-01-20T06:32:27;3.00;99.90
10802;DHT22;5453;50.852;7.102;2023-01-20T06:34:59;3.00;99.90
10802;DHT22;5453;50.852;7.102;2023-01-20T06:37:31;3.00;99.90
10802;DHT22;5453;50.852;7.102;2023-01-20T06:40:06;3.00;99.90
10802;DHT22;5453;50.852;7.102;2023-01-20T06:42:39;3.00;99.90
10802;DHT22;5453;50.852;7.102;2023-01-20T06:45:11;3.00;99.90
10802;DHT22;5453;50.852;7.102;2023-01-20T06:47:47;3.00;99.90
10802;DHT22;5453;50.852;7.102;2023-01-20T06:50:19;3.00;99.90
10802;DHT22;5453;50.852;7.102;2023-01-20T06:52:52;3.00;99.90
10802;DHT22;5453;50.852;7.102;2023-01-20T06:55:26;3.00;99.90
10802;DHT22;5453;50.852;7.102;2023-01-20T06:57:59;3.00;99.90
10802;DHT22;5453;50.852;7.102;2023-01-20T07:00:31;2.90;99.90
10802;DHT22;5453;50.852;7.102;2023-01-20T07:03:05;2.90;99.90
10802;DHT22;5453;50.852;7.102;2023-01-20T07:05:37;2.90;99.90
10802;DHT22;5453;50.852;7.102;2023-01-20T07:08:10;2.90;99.90
10802;DHT22;5453;50.852;7.102;2023-01-20T07:10:43;2.90;99.90
10802;DHT22;5453;50.852;7.102;2023-01-20T07:13:15;2.90;99.90
10802;DHT22;5453;50.852;7.102;2023-01-20T07:15:48;2.90;99.90
10802;DHT22;5453;50.852;7.102;2023-01-20T07:18:20;2.90;99.90
10802;DHT22;5453;50.852;7.102;2023-01-20T07:20:53;2.90;99.90
10802;DHT22;5453;50.852;7.102;2023-01-20T07:23:26;2.90;99.90
10802;DHT22;5453;50.852;7.102;2023-01-20T07:26:05;2.90;99.90
10802;DHT22;5453;50.852;7.102;2023-01-20T07:28:38;2.90;99.90
10802;DHT22;5453;50.852;7.102;2023-01-20T07:31:14;2.90;99.90
10802;DHT22;5453;50.852;7.102;2023-01-20T07:33:47;2.90;99.90
10802;DHT22;5453;50.852;7.102;2023-01-20T07:36:20;2.90;99.90
10802;DHT22;5453;50.852;7.102;2023-01-20T07:38:53;2.90;99.90
10802;DHT22;5453;50.852;7.102;2023-01-20T07:41:26;2.90;99.90
10802;DHT22;5453;50.852;7.102;2023-01-20T07:43:59;2.90;99.90
10802;DHT22;5453;50.852;7.102;2023-01-20T07:46:31;2.90;99.90
10802;DHT22;5453;50.852;7.102;2023-01-20T07:49:03;2.90;99.90
10802;DHT22;5453;50.852;7.102;2023-01-20T07:51:35;2.90;99.90
10802;DHT22;5453;50.852;7.102;2023-01-20T07:54:10;2.90;99.90
10802;DHT22;5453;50.852;7.102;2023-01-20T07:56:44;3.00;99.90
10802;DHT22;5453;50.852;7.102;2023-01-20T07:59:16;3.00;99.90
10802;DHT22;5453;50.852;7.102;2023-01-20T08:01:48;3.00;99.90
10802;DHT22;5453;50.852;7.102;2023-01-20T08:04:20;3.00;99.90
10802;DHT22;5453;50.852;7.102;2023-01-20T08:06:52;3.00;99.90
10802;DHT22;5453;50.852;7.102;2023-01-20T08:09:25;3.00;99.90
10802;DHT22;5453;50.852;7.102;2023-01-20T08:11:58;3.10;99.90
10802;DHT22;5453;50.852;7.102;2023-01-20T08:14:31;3.10;99.90
10802;DHT22;5453;50.852;7.102;2023-01-20T08:17:03;3.10;99.90
10802;DHT22;5453;50.852;7.102;2023-01-20T08:19:36;3.10;99.90
10802;DHT22;5453;50.852;7.102;2023-01-20T08:22:08;3.10;99.90
10802;DHT22;5453;50.852;7.102;2023-01-20T08:24:40;3.10;99.90
10802;DHT22;5453;50.852;7.102;2023-01-20T08:27:13;3.10;99.90
10802;DHT22;5453;50.852;7.102;2023-01-20T08:29:46;3.10;99.90
10802;DHT22;5453;50.852;7.102;2023-01-20T08:32:19;3.10;99.90
10802;DHT22;5453;50.852;7.102;2023-01-20T08:34:51;3.10;99.90
10802;DHT22;5453;50.852;7.102;2023-01-20T08:37:24;3.10;99.90
10802;DHT22;5453;50.852;7.102;2023-01-20T08:39:57;3.10;99.90
10802;DHT22;5453;50.852;7.102;2023-01-20T08:42:30;3.10;99.90
10802;DHT22;5453;50.852;7.102;2023-01-20T08:45:04;3.10;99.90
10802;DHT22;5453;50.852;7.102;2023-01-20T08:47:40;3.10;99.90
10802;DHT22;5453;50.852;7.102;2023-01-20T08:50:15;3.20;99.90
10802;DHT22;5453;50.852;7.102;2023-01-20T08:52:48;3.30;99.90
10802;DHT22;5453;50.852;7.102;2023-01-20T08:55:20;3.30;99.90
10802;DHT22;5453;50.852;7.102;2023-01-20T08:57:53;3.30;99.90
10802;DHT22;5453;50.852;7.102;2023-01-20T09:00:26;4.30;99.90
10802;DHT22;5453;50.852;7.102;2023-01-20T09:02:58;4.60;99.90
10802;DHT22;5453;50.852;7.102;2023-01-20T09:05:30;4.50;99.90
10802;DHT22;5453;50.852;7.102;2023-01-20T09:08:02;4.40;99.90
10802;DHT22;5453;50.852;7.102;2023-01-20T09:10:35;4.30;99.90
10802;DHT22;5453;50.852;7.102;2023-01-20T09:13:08;4.20;99.90
10802;DHT22;5453;50.852;7.102;2023-01-20T09:15:40;4.00;99.90
10802;DHT22;5453;50.852;7.102;2023-01-20T09:18:13;3.90;99.90
10802;DHT22;5453;50.852;7.102;2023-01-20T09:20:45;3.80;99.90
10802;DHT22;5453;50.852;7.102;2023-01-20T09:23:17;3.80;99.90
10802;DHT22;5453;50.852;7.102;2023-01-20T09:25:49;3.80;99.90
10802;DHT22;5453;50.852;7.102;2023-01-20T09:28:22;3.80;99.90
10802;DHT22;5453;50.852;7.102;2023-01-20T09:30:56;3.90;99.90
10802;DHT22;5453;50.852;7.102;2023-01-20T09:33:29;4.00;99.90
10802;DHT22;5453;50.852;7.102;2023-01-20T09:36:02;3.90;99.90
10802;DHT22;5453;50.852;7.102;2023-01-20T09:38:36;4.00;99.90
10802;DHT22;5453;50.852;7.102;2023-01-20T09:41:27;4.00;99.90
10802;DHT22;5453;50.852;7.102;2023-01-20T09:44:41;4.10;99.90
10802;DHT22;5453;50.852;7.102;2023-01-20T09:47:27;4.20;99.90
10802;DHT22;5453;50.852;7.102;2023-01-20T09:50:11;4.30;99.90
10802;DHT22;5453;50.852;7.102;2023-01-20T09:53:09;4.40;99.90
10802;DHT22;5453;50.852;7.102;2023-01-20T09:55:49;4.50;99.90
10802;DHT22;5453;50.852;7.102;2023-01-20T09:58:28;4.60;99.90
10802;DHT22;5453;50.852;7.102;2023-01-20T10:01:11;4.70;99.90
10802;DHT22;5453;50.852;7.102;2023-01-20T10:03:51;4.90;99.90
10802;DHT22;5453;50.852;7.102;2023-01-20T10:06:29;4.90;99.90
10802;DHT22;5453;50.852;7.102;2023-01-20T10:09:10;4.90;99.90
10802;DHT22;5453;50.852;7.102;2023-01-20T10:11:57;4.90;99.90
10802;DHT22;5453;50.852;7.102;2023-01-20T10:14:36;4.90;99.90
10802;DHT22;5453;50.852;7.102;2023-01-20T10:17:16;4.90;99.90
10802;DHT22;5453;50.852;7.102;2023-01-20T10:19:55;4.80;99.90
10802;DHT22;5453;50.852;7.102;2023-01-20T10:22:38;4.70;99.90
10802;DHT22;5453;50.852;7.102;2023-01-20T10:25:14;4.70;99.90
10802;DHT22;5453;50.852;7.102;2023-01-20T10:27:52;4.60;99.90
10802;DHT22;5453;50.852;7.102;2023-01-20T10:30:31;4.60;99.90
10802;DHT22;5453;50.852;7.102;2023-01-20T10:33:10;4.50;99.90
10802;DHT22;5453;50.852;7.102;2023-01-20T10:35:46;4.50;99.90
10802;DHT22;5453;50.852;7.102;2023-01-20T10:38:25;4.50;99.90
10802;DHT22;5453;50.852;7.102;2023-01-20T10:41:06;4.50;99.90
10802;DHT22;5453;50.852;7.102;2023-01-20T10:43:44;4.50;99.90
10802;DHT22;5453;50.852;7.102;2023-01-20T10:46:26;4.50;99.90
10802;DHT22;5453;50.852;7.102;2023-01-20T10:49:39;4.60;99.90
10802;DHT22;5453;50.852;7.102;2023-01-20T10:52:32;4.70;99.90
10802;DHT22;5453;50.852;7.102;2023-01-20T10:55:20;4.80;99.90
10802;DHT22;5453;50.852;7.102;2023-01-20T10:58:11;4.90;99.90
10802;DHT22;5453;50.852;7.102;2023-01-20T11:00:46;4.90;99.90
10802;DHT22;5453;50.852;7.102;2023-01-20T11:03:21;4.90;99.90
10802;DHT22;5453;50.852;7.102;2023-01-20T11:05:54;4.90;99.90
10802;DHT22;5453;50.852;7.102;2023-01-20T11:08:28;4.90;99.90
10802;DHT22;5453;50.852;7.102;2023-01-20T11:11:09;4.80;99.90
10802;DHT22;5453;50.852;7.102;2023-01-20T11:13:43;4.80;99.90
10802;DHT22;5453;50.852;7.102;2023-01-20T11:16:18;4.70;99.90
10802;DHT22;5453;50.852;7.102;2023-01-20T11:18:56;4.70;99.90
10802;DHT22;5453;50.852;7.102;2023-01-20T11:21:32;4.60;99.90
10802;DHT22;5453;50.852;7.102;2023-01-20T11:24:27;4.90;99.90
10802;DHT22;5453;50.852;7.102;2023-01-20T11:27:11;5.00;99.90
10802;DHT22;5453;50.852;7.102;2023-01-20T11:29:49;4.80;99.90
10802;DHT22;5453;50.852;7.102;2023-01-20T11:32:31;4.70;99.90
10802;DHT22;5453;50.852;7.102;2023-01-20T11:35:19;4.60;99.90
10802;DHT22;5453;50.852;7.102;2023-01-20T11:37:53;4.50;99.90
10802;DHT22;5453;50.852;7.102;2023-01-20T11:40:27;4.50;99.90
10802;DHT22;5453;50.852;7.102;2023-01-20T11:42:59;4.50;99.90
10802;DHT22;5453;50.852;7.102;2023-01-20T11:45:34;4.40;99.90
10802;DHT22;5453;50.852;7.102;2023-01-20T11:48:16;4.40;99.90
10802;DHT22;5453;50.852;7.102;2023-01-20T11:50:53;4.40;99.90
10802;DHT22;5453;50.852;7.102;2023-01-20T11:53:30;4.30;99.90
10802;DHT22;5453;50.852;7.102;2023-01-20T11:56:03;4.40;99.90
10802;DHT22;5453;50.852;7.102;2023-01-20T11:58:48;4.30;99.90
10802;DHT22;5453;50.852;7.102;2023-01-20T12:01:25;4.30;99.90
10802;DHT22;5453;50.852;7.102;2023-01-20T12:04:17;4.30;99.90
10802;DHT22;5453;50.852;7.102;2023-01-20T12:06:57;4.30;99.90
10802;DHT22;5453;50.852;7.102;2023-01-20T12:09:36;4.30;99.90
10802;DHT22;5453;50.852;7.102;2023-01-20T12:12:16;4.30;99.90
10802;DHT22;5453;50.852;7.102;2023-01-20T12:14:59;4.40;99.90
10802;DHT22;5453;50.852;7.102;2023-01-20T12:17:40;4.40;99.90
10802;DHT22;5453;50.852;7.102;2023-01-20T12:20:25;4.50;99.90
10802;DHT22;5453;50.852;7.102;2023-01-20T12:23:13;4.50;99.90
10802;DHT22;5453;50.852;7.102;2023-01-20T12:25:55;4.50;99.90
10802;DHT22;5453;50.852;7.102;2023-01-20T12:28:35;4.50;99.90
10802;DHT22;5453;50.852;7.102;2023-01-20T12:31:10;4.50;99.90
10802;DHT22;5453;50.852;7.102;2023-01-20T12:33:44;4.50;99.90
10802;DHT22;5453;50.852;7.102;2023-01-20T12:36:40;4.40;99.90
10802;DHT22;5453;50.852;7.102;2023-01-20T12:39:30;4.40;99.90
10802;DHT22;5453;50.852;7.102;2023-01-20T12:42:56;4.40;99.90
10802;DHT22;5453;50.852;7.102;2023-01-20T12:45:48;4.40;99.90
10802;DHT22;5453;50.852;7.102;2023-01-20T12:48:33;4.40;99.90
10802;DHT22;5453;50.852;7.102;2023-01-20T12:51:29;4.40;99.90
10802;DHT22;5453;50.852;7.102;2023-01-20T12:54:23;4.40;99.90
10802;DHT22;5453;50.852;7.102;2023-01-20T12:57:24;4.40;99.90
10802;DHT22;5453;50.852;7.102;2023-01-20T13:00:13;4.40;99.90
10802;DHT22;5453;50.852;7.102;2023-01-20T13:03:38;4.80;99.90
10802;DHT22;5453;50.852;7.102;2023-01-20T13:06:55;4.80;99.90
10802;DHT22;5453;50.852;7.102;2023-01-20T13:09:53;4.60;99.90
10802;DHT22;5453;50.852;7.102;2023-01-20T13:12:39;4.60;99.90
10802;DHT22;5453;50.852;7.102;2023-01-20T13:15:21;4.50;99.90
10802;DHT22;5453;50.852;7.102;2023-01-20T13:18:18;4.40;99.90
10802;DHT22;5453;50.852;7.102;2023-01-20T13:20:54;4.30;99.90
10802;DHT22;5453;50.852;7.102;2023-01-20T13:23:30;4.20;99.90
10802;DHT22;5453;50.852;7.102;2023-01-20T13:26:05;4.20;99.90
10802;DHT22;5453;50.852;7.102;2023-01-20T13:28:37;4.10;99.90
10802;DHT22;5453;50.852;7.102;2023-01-20T13:31:41;4.00;99.90
10802;DHT22;5453;50.852;7.102;2023-01-20T13:34:33;4.00;99.90
10802;DHT22;5453;50.852;7.102;2023-01-20T13:37:24;3.90;99.90
10802;DHT22;5453;50.852;7.102;2023-01-20T13:39:58;3.80;99.90
10802;DHT22;5453;50.852;7.102;2023-01-20T13:42:48;3.80;99.90
10802;DHT22;5453;50.852;7.102;2023-01-20T13:45:23;3.80;99.90
10802;DHT22;5453;50.852;7.102;2023-01-20T13:48:00;3.70;99.90
10802;DHT22;5453;50.852;7.102;2023-01-20T13:50:48;3.70;99.90
10802;DHT22;5453;50.852;7.102;2023-01-20T13:53:26;3.70;99.90
10802;DHT22;5453;50.852;7.102;2023-01-20T13:56:24;3.60;99.90
10802;DHT22;5453;50.852;7.102;2023-01-20T13:58:57;3.60;99.90
10802;DHT22;5453;50.852;7.102;2023-01-20T14:01:29;3.50;99.90
10802;DHT22;5453;50.852;7.102;2023-01-20T14:04:04;3.50;99.90
10802;DHT22;5453;50.852;7.102;2023-01-20T14:06:43;3.40;99.90
10802;DHT22;5453;50.852;7.102;2023-01-20T14:09:19;3.30;99.90
10802;DHT22;5453;50.852;7.102;2023-01-20T14:11:53;3.20;99.90
10802;DHT22;5453;50.852;7.102;2023-01-20T14:14:26;3.20;99.90
10802;DHT22;5453;50.852;7.102;2023-01-20T14:17:00;3.20;99.90
10802;DHT22;5453;50.852;7.102;2023-01-20T14:19:36;3.20;99.90
10802;DHT22;5453;50.852;7.102;2023-01-20T14:22:18;3.20;99.90
10802;DHT22;5453;50.852;7.102;2023-01-20T14:24:52;3.20;99.90
10802;DHT22;5453;50.852;7.102;2023-01-20T14:27:28;3.20;99.90
10802;DHT22;5453;50.852;7.102;2023-01-20T14:30:13;3.20;99.90
10802;DHT22;5453;50.852;7.102;2023-01-20T14:32:48;3.20;99.90
10802;DHT22;5453;50.852;7.102;2023-01-20T14:35:27;3.60;99.90
10802;DHT22;5453;50.852;7.102;2023-01-20T14:38:01;3.60;99.90
10802;DHT22;5453;50.852;7.102;2023-01-20T14:40:33;3.50;99.90
10802;DHT22;5453;50.852;7.102;2023-01-20T14:43:14;3.50;99.90
10802;DHT22;5453;50.852;7.102;2023-01-20T14:45:50;3.40;99.90
10802;DHT22;5453;50.852;7.102;2023-01-20T14:48:23;3.30;99.90
10802;DHT22;5453;50.852;7.102;2023-01-20T14:50:56;3.20;99.90
10802;DHT22;5453;50.852;7.102;2023-01-20T14:53:32;3.10;99.90
10802;DHT22;5453;50.852;7.102;2023-01-20T14:56:07;3.10;99.90
10802;DHT22;5453;50.852;7.102;2023-01-20T14:58:49;3.10;99.90
10802;DHT22;5453;50.852;7.102;2023-01-20T15:01:24;3.00;99.90
10802;DHT22;5453;50.852;7.102;2023-01-20T15:03:59;3.00;99.90
10802;DHT22;5453;50.852;7.102;2023-01-20T15:06:33;2.90;99.90
10802;DHT22;5453;50.852;7.102;2023-01-20T15:12:31;2.90;99.90
10802;DHT22;5453;50.852;7.102;2023-01-20T15:15:12;2.80;99.90
10802;DHT22;5453;50.852;7.102;2023-01-20T15:20:53;2.70;99.90
10802;DHT22;5453;50.852;7.102;2023-01-20T15:23:32;2.70;99.90
10802;DHT22;5453;50.852;7.102;2023-01-20T15:26:09;2.70;99.90
10802;DHT22;5453;50.852;7.102;2023-01-20T15:28:59;2.70;99.90
10802;DHT22;5453;50.852;7.102;2023-01-20T15:31:31;2.80;99.90
10802;DHT22;5453;50.852;7.102;2023-01-20T15:34:03;2.70;99.90
10802;DHT22;5453;50.852;7.102;2023-01-20T15:36:35;2.70;99.90
10802;DHT22;5453;50.852;7.102;2023-01-20T15:39:11;2.70;99.90
10802;DHT22;5453;50.852;7.102;2023-01-20T15:41:44;2.70;99.90
10802;DHT22;5453;50.852;7.102;2023-01-20T15:44:18;2.60;99.90
10802;DHT22;5453;50.852;7.102;2023-01-20T15:46:50;2.60;99.90
10802;DHT22;5453;50.852;7.102;2023-01-20T15:49:23;2.60;99.90
10802;DHT22;5453;50.852;7.102;2023-01-20T15:51:55;2.60;99.90
10802;DHT22;5453;50.852;7.102;2023-01-20T15:54:28;2.60;99.90
10802;DHT22;5453;50.852;7.102;2023-01-20T15:57:01;2.60;99.90
10802;DHT22;5453;50.852;7.102;2023-01-20T15:59:33;2.60;99.90
10802;DHT22;5453;50.852;7.102;2023-01-20T16:02:15;2.60;99.90
10802;DHT22;5453;50.852;7.102;2023-01-20T16:04:48;2.60;99.90
10802;DHT22;5453;50.852;7.102;2023-01-20T16:07:20;2.60;99.90
10802;DHT22;5453;50.852;7.102;2023-01-20T16:09:53;2.60;99.90
10802;DHT22;5453;50.852;7.102;2023-01-20T16:12:25;2.60;99.90
10802;DHT22;5453;50.852;7.102;2023-01-20T16:14:59;2.50;99.90
10802;DHT22;5453;50.852;7.102;2023-01-20T16:17:32;2.50;99.90
10802;DHT22;5453;50.852;7.102;2023-01-20T16:20:20;2.50;99.90
10802;DHT22;5453;50.852;7.102;2023-01-20T16:22:53;2.50;99.90
10802;DHT22;5453;50.852;7.102;2023-01-20T16:25:28;2.50;99.90
10802;DHT22;5453;50.852;7.102;2023-01-20T16:28:00;2.50;99.90
10802;DHT22;5453;50.852;7.102;2023-01-20T16:30:33;2.60;99.90
10802;DHT22;5453;50.852;7.102;2023-01-20T16:33:14;2.50;99.90
10802;DHT22;5453;50.852;7.102;2023-01-20T16:35:48;2.50;99.90
10802;DHT22;5453;50.852;7.102;2023-01-20T16:38:23;2.50;99.90
10802;DHT22;5453;50.852;7.102;2023-01-20T16:41:02;2.50;99.90
10802;DHT22;5453;50.852;7.102;2023-01-20T16:43:38;2.50;99.90
10802;DHT22;5453;50.852;7.102;2023-01-20T16:46:13;2.50;99.90
10802;DHT22;5453;50.852;7.102;2023-01-20T16:48:46;2.50;99.90
10802;DHT22;5453;50.852;7.102;2023-01-20T16:51:20;2.50;99.90
10802;DHT22;5453;50.852;7.102;2023-01-20T16:53:55;2.60;99.90
10802;DHT22;5453;50.852;7.102;2023-01-20T16:56:31;2.60;99.90
10802;DHT22;5453;50.852;7.102;2023-01-20T16:59:03;2.60;99.90
10802;DHT22;5453;50.852;7.102;2023-01-20T17:01:36;2.50;99.90
10802;DHT22;5453;50.852;7.102;2023-01-20T17:04:08;2.50;99.90
10802;DHT22;5453;50.852;7.102;2023-01-20T17:06:40;2.50;99.90
10802;DHT22;5453;50.852;7.102;2023-01-20T17:09:13;2.50;99.90
10802;DHT22;5453;50.852;7.102;2023-01-20T17:11:46;2.50;99.90